Time;durP1;ratioP1;P1;durP2;ratioP2;P2;SDS_P1;SDS_P2;PMS_P1;PMS_P2;Temp;Humidity;BMP_temperature;BMP_pressure;BME280_temperature;BME280_humidity;BME280_pressure;Samples;Min_cycle;Max_cycle;Signal;HPM_P1;HPM_P2
2021/08/04 00:00:09;;;;;;;9.00;3.50;;;;;24.10;100363.00;;;;93208;1224;76760;-47
2021/08/04 00:02:31;;;;;;;9.80;3.70;;;;;24.10;100370.00;;;;93207;1224;84570;-51
2021/08/04 00:04:32;;;;;;;8.30;3.60;;;;;24.10;100368.20;;;;93179;1224;100792;-47
2021/08/04 00:06:34;;;;;;;7.80;3.30;;;;;24.10;100364.60;;;;93154;1224;94173;-45
2021/08/04 00:08:35;;;;;;;7.10;3.50;;;;;24.10;100362.60;;;;93189;1224;86627;-42
2021/08/04 00:10:37;;;;;;;7.50;3.40;;;;;24.04;100363.80;;;;93182;1223;77340;-41
2021/08/04 00:12:38;;;;;;;7.80;3.20;;;;;24.00;100366.00;;;;93177;1224;83956;-41
2021/08/04 00:14:40;;;;;;;8.30;3.60;;;;;24.00;100361.20;;;;93180;1224;101384;-42
2021/08/04 00:16:41;;;;;;;7.70;3.60;;;;;23.94;100362.80;;;;93155;1224;94444;-42
2021/08/04 00:18:43;;;;;;;6.60;3.00;;;;;24.00;100367.00;;;;93180;1223;84915;-41
2021/08/04 00:20:44;;;;;;;9.00;3.60;;;;;24.00;100361.40;;;;93202;1224;78927;-48
2021/08/04 00:22:46;;;;;;;6.70;3.30;;;;;24.00;100361.60;;;;93184;1222;83918;-48
2021/08/04 00:24:48;;;;;;;8.10;3.50;;;;;24.00;100354.40;;;;93178;1224;101592;-49
2021/08/04 00:26:49;;;;;;;8.20;3.60;;;;;24.00;100360.60;;;;93178;1224;94036;-40
2021/08/04 00:28:51;;;;;;;8.30;3.70;;;;;24.00;100362.80;;;;93179;1222;84247;-42
2021/08/04 00:30:52;;;;;;;7.80;3.50;;;;;24.00;100364.80;;;;93169;1216;76575;-47
2021/08/04 00:32:54;;;;;;;8.00;3.20;;;;;24.00;100363.20;;;;93173;1224;84011;-47
2021/08/04 00:34:55;;;;;;;6.10;3.10;;;;;24.00;100365.60;;;;93192;1224;100702;-45
2021/08/04 00:36:57;;;;;;;6.30;3.10;;;;;24.00;100361.40;;;;93167;1224;94520;-42
2021/08/04 00:38:58;;;;;;;7.00;3.40;;;;;23.92;100363.80;;;;93182;1224;83937;-41
2021/08/04 00:41:00;;;;;;;7.80;3.40;;;;;23.92;100366.60;;;;93187;1221;76754;-47
2021/08/04 00:43:02;;;;;;;6.90;3.30;;;;;23.92;100365.60;;;;93174;1216;83803;-46
2021/08/04 00:45:04;;;;;;;8.10;3.20;;;;;23.94;100370.80;;;;93178;1224;101552;-42
2021/08/04 00:47:06;;;;;;;7.80;3.20;;;;;23.96;100371.80;;;;93150;1224;94265;-41
2021/08/04 00:49:12;;;;;;;6.80;3.10;;;;;23.90;100370.60;;;;93177;1222;84800;-40
2021/08/04 00:51:14;;;;;;;6.50;3.20;;;;;23.92;100366.20;;;;93202;1223;77556;-48
2021/08/04 00:53:23;;;;;;;6.60;3.20;;;;;23.90;100364.40;;;;93184;1223;85502;-49
2021/08/04 00:55:25;;;;;;;6.60;2.90;;;;;23.90;100363.60;;;;93211;1224;101385;-42
2021/08/04 00:57:26;;;;;;;6.70;2.70;;;;;23.90;100366.60;;;;93176;1223;94564;-41
2021/08/04 00:59:27;;;;;;;5.80;2.80;;;;;23.90;100366.40;;;;93187;1224;84396;-40
2021/08/04 01:01:46;;;;;;;7.50;3.20;;;;;23.90;100362.80;;;;93190;1216;76738;-50
2021/08/04 01:03:54;;;;;;;6.00;2.90;;;;;23.90;100363.00;;;;93206;1213;83676;-49
2021/08/04 01:05:56;;;;;;;7.00;3.10;;;;;23.90;100359.60;;;;93215;1217;99856;-41
2021/08/04 01:08:04;;;;;;;8.00;3.30;;;;;23.90;100359.00;;;;93158;1224;94239;-42
2021/08/04 01:10:08;;;;;;;7.10;3.40;;;;;23.90;100362.40;;;;93222;1222;86352;-47
2021/08/04 01:12:11;;;;;;;6.60;3.00;;;;;23.90;100360.80;;;;93153;1222;77594;-47
2021/08/04 01:14:13;;;;;;;8.70;3.20;;;;;23.90;100359.80;;;;93249;1206;83719;-48
2021/08/04 01:16:19;;;;;;;8.20;3.40;;;;;23.70;100362.60;;;;93222;1222;100681;-41
2021/08/04 01:18:23;;;;;;;9.10;3.70;;;;;23.20;100370.40;;;;93258;1222;94068;-41
2021/08/04 01:20:26;;;;;;;7.80;3.50;;;;;22.90;100380.40;;;;93213;1222;85160;-41
2021/08/04 01:22:58;;;;;;;7.90;3.70;;;;;23.06;100374.20;;;;93259;1222;77612;-42
2021/08/04 01:25:09;;;;;;;7.30;3.40;;;;;23.00;100375.80;;;;93251;1222;84249;-43
2021/08/04 01:27:14;;;;;;;7.30;3.30;;;;;23.16;100371.40;;;;93219;1222;101039;-40
2021/08/04 01:29:18;;;;;;;6.40;2.90;;;;;23.50;100366.00;;;;93220;1222;94489;-42
2021/08/04 01:31:23;;;;;;;10.00;3.00;;;;;23.60;100364.00;;;;93203;1222;84631;-48
2021/08/04 01:33:25;;;;;;;6.90;3.10;;;;;23.60;100358.80;;;;93229;1209;76400;-47
2021/08/04 01:35:26;;;;;;;8.50;3.40;;;;;23.50;100371.80;;;;93247;1222;85383;-48
2021/08/04 01:37:28;;;;;;;8.70;3.20;;;;;23.40;100371.80;;;;93201;1216;99933;-49
2021/08/04 01:39:29;;;;;;;6.50;3.20;;;;;23.40;100368.20;;;;93208;1222;93449;-47
2021/08/04 01:41:33;;;;;;;6.00;3.00;;;;;23.60;100359.20;;;;93149;1224;83995;-46
2021/08/04 01:43:35;;;;;;;10.30;3.80;;;;;23.60;100352.00;;;;93228;1222;77539;-47
2021/08/04 01:45:37;;;;;;;8.20;3.20;;;;;23.60;100355.00;;;;93207;1222;84945;-47
2021/08/04 01:47:38;;;;;;;6.70;3.10;;;;;23.50;100362.00;;;;93241;1222;100182;-47
2021/08/04 01:49:40;;;;;;;6.60;3.00;;;;;23.52;100359.00;;;;93260;1222;94283;-49
2021/08/04 01:51:44;;;;;;;7.90;3.50;;;;;23.60;100354.20;;;;93213;1213;84401;-40
2021/08/04 01:53:47;;;;;;;7.40;3.20;;;;;23.50;100356.00;;;;93288;1222;78055;-40
2021/08/04 01:55:48;;;;;;;7.20;3.10;;;;;23.60;100357.60;;;;93252;1222;84926;-40
2021/08/04 01:57:50;;;;;;;6.60;3.40;;;;;23.60;100353.80;;;;93177;1222;101841;-42
2021/08/04 01:59:51;;;;;;;6.60;3.20;;;;;23.60;100355.40;;;;93256;1222;94106;-41
2021/08/04 02:01:54;;;;;;;7.60;3.60;;;;;23.60;100359.40;;;;93226;1222;84121;-42
2021/08/04 02:03:56;;;;;;;9.10;3.50;;;;;23.60;100358.80;;;;93197;1223;76610;-42
2021/08/04 02:05:57;;;;;;;7.50;3.80;;;;;23.50;100355.20;;;;93263;1222;83760;-47
2021/08/04 02:08:28;;;;;;;7.90;3.20;;;;;23.60;100357.00;;;;93148;1223;101623;-49
2021/08/04 02:10:53;;;;;;;7.20;3.10;;;;;23.60;100348.00;;;;93238;1215;93224;-47
2021/08/04 02:13:01;;;;;;;5.80;3.00;;;;;23.60;100344.60;;;;93263;1222;83918;-48
2021/08/04 02:15:06;;;;;;;6.60;3.10;;;;;23.60;100343.00;;;;93262;1222;77765;-40
2021/08/04 02:17:13;;;;;;;7.50;3.10;;;;;23.60;100339.80;;;;93260;1215;84877;-41
2021/08/04 02:19:44;;;;;;;6.80;3.00;;;;;23.60;100337.60;;;;93269;1222;101583;-40
2021/08/04 02:21:49;;;;;;;6.90;3.20;;;;;23.60;100350.40;;;;93155;1219;93803;-41
2021/08/04 02:23:51;;;;;;;7.90;3.00;;;;;23.50;100351.40;;;;93252;1219;84138;-43
2021/08/04 02:25:59;;;;;;;10.50;3.20;;;;;23.50;100352.60;;;;93215;1214;76742;-47
2021/08/04 02:28:01;;;;;;;6.70;2.90;;;;;23.60;100346.60;;;;93266;1215;84173;-47
2021/08/04 02:30:04;;;;;;;6.00;2.90;;;;;23.60;100337.40;;;;93225;1222;101671;-49
2021/08/04 02:32:06;;;;;;;6.00;2.90;;;;;23.60;100330.60;;;;93307;1219;93443;-53
2021/08/04 02:34:08;;;;;;;6.30;3.00;;;;;23.60;100335.60;;;;93293;1214;84186;-48
2021/08/04 02:36:10;;;;;;;7.40;3.20;;;;;23.60;100341.60;;;;93236;1208;76565;-40
2021/08/04 02:38:12;;;;;;;7.40;3.20;;;;;23.60;100340.80;;;;93260;1215;83919;-41
2021/08/04 02:40:15;;;;;;;7.70;3.00;;;;;23.60;100340.00;;;;93259;1222;100507;-41
2021/08/04 02:42:17;;;;;;;7.20;3.20;;;;;23.60;100334.60;;;;93242;1222;94020;-40
2021/08/04 02:44:20;;;;;;;6.60;3.20;;;;;23.60;100334.80;;;;93274;1219;85075;-42
2021/08/04 02:46:23;;;;;;;8.40;3.20;;;;;23.60;100335.20;;;;93222;1222;77040;-48
2021/08/04 02:48:25;;;;;;;6.40;3.30;;;;;23.60;100332.40;;;;93296;1212;83918;-51
2021/08/04 02:50:26;;;;;;;8.20;3.60;;;;;23.60;100329.20;;;;93215;1222;101465;-42
2021/08/04 02:52:28;;;;;;;8.50;3.20;;;;;23.60;100326.80;;;;93169;1222;94377;-42
2021/08/04 02:54:29;;;;;;;7.30;3.60;;;;;23.60;100326.40;;;;93153;1223;84139;-45
2021/08/04 02:56:31;;;;;;;8.00;3.60;;;;;23.56;100324.80;;;;93304;1206;76542;-51
2021/08/04 02:58:37;;;;;;;8.60;3.70;;;;;23.50;100319.60;;;;93332;1220;84950;-48
2021/08/04 03:00:39;;;;;;;6.90;3.40;;;;;23.50;100321.20;;;;93299;1221;101195;-42
2021/08/04 03:02:40;;;;;;;8.30;3.60;;;;;23.50;100318.80;;;;93276;1220;94876;-41
2021/08/04 03:04:42;;;;;;;9.70;3.40;;;;;23.54;100316.40;;;;93330;1221;85169;-43
2021/08/04 03:06:43;;;;;;;6.80;3.20;;;;;23.56;100315.00;;;;93293;1211;77017;-54
2021/08/04 03:08:45;;;;;;;7.00;3.30;;;;;23.50;100316.60;;;;93311;1221;85511;-49
2021/08/04 03:10:46;;;;;;;7.50;3.40;;;;;23.50;100320.20;;;;93362;1220;100828;-49
2021/08/04 03:12:48;;;;;;;7.60;3.60;;;;;23.50;100324.40;;;;93323;1221;93359;-52
2021/08/04 03:14:49;;;;;;;7.50;3.40;;;;;23.50;100331.60;;;;93278;1219;84070;-47
2021/08/04 03:16:51;;;;;;;6.60;3.30;;;;;23.50;100337.40;;;;93305;1211;76434;-47
2021/08/04 03:18:52;;;;;;;7.30;3.60;;;;;23.50;100335.00;;;;93317;1221;84968;-49
2021/08/04 03:20:54;;;;;;;7.10;3.70;;;;;23.50;100332.20;;;;93309;1220;101422;-41
2021/08/04 03:22:56;;;;;;;6.50;3.20;;;;;23.50;100332.60;;;;93320;1221;94203;-41
2021/08/04 03:24:57;;;;;;;7.80;3.80;;;;;23.50;100329.60;;;;93288;1219;84042;-46
2021/08/04 03:27:02;;;;;;;8.20;3.80;;;;;23.50;100328.40;;;;93312;1212;76661;-48
2021/08/04 03:29:04;;;;;;;8.60;3.80;;;;;23.50;100334.00;;;;93308;1220;84856;-50
2021/08/04 03:31:05;;;;;;;9.50;4.00;;;;;23.50;100338.40;;;;93305;1221;102621;-49
2021/08/04 03:33:07;;;;;;;10.40;4.00;;;;;23.50;100338.80;;;;93267;1221;94321;-47
2021/08/04 03:35:09;;;;;;;10.10;4.10;;;;;23.50;100341.20;;;;93296;1221;85332;-48
2021/08/04 03:37:10;;;;;;;11.50;4.30;;;;;23.50;100344.20;;;;93334;1221;76640;-47
2021/08/04 03:39:12;;;;;;;10.50;4.00;;;;;23.50;100345.20;;;;93308;1221;84949;-46
2021/08/04 03:41:13;;;;;;;8.70;4.30;;;;;23.50;100341.20;;;;93264;1220;102454;-41
2021/08/04 03:43:15;;;;;;;8.80;4.30;;;;;23.50;100339.60;;;;93268;1220;94295;-41
2021/08/04 03:45:17;;;;;;;8.70;3.90;;;;;23.50;100338.80;;;;93314;1221;85063;-47
2021/08/04 03:47:18;;;;;;;10.40;4.30;;;;;23.50;100340.00;;;;93303;1220;76626;-48
2021/08/04 03:49:20;;;;;;;8.80;4.20;;;;;23.50;100337.60;;;;93322;1220;84884;-48
2021/08/04 03:51:21;;;;;;;8.80;3.80;;;;;23.50;100338.40;;;;93304;1220;102153;-42
2021/08/04 03:53:23;;;;;;;9.00;4.10;;;;;23.50;100333.00;;;;93286;1221;94173;-40
2021/08/04 03:55:24;;;;;;;8.40;3.90;;;;;23.50;100335.80;;;;93290;1221;84299;-41
2021/08/04 03:57:26;;;;;;;7.50;4.00;;;;;23.60;100337.00;;;;93274;1221;76580;-42
2021/08/04 03:59:28;;;;;;;9.60;3.80;;;;;23.60;100336.00;;;;93303;1204;83795;-41
2021/08/04 04:01:29;;;;;;;10.30;4.20;;;;;23.56;100334.80;;;;93299;1221;102232;-41
2021/08/04 04:03:31;;;;;;;8.40;4.50;;;;;23.50;100336.00;;;;93331;1221;94341;-41
2021/08/04 04:05:33;;;;;;;8.30;4.10;;;;;23.50;100336.00;;;;93278;1220;85352;-46
2021/08/04 04:07:34;;;;;;;10.20;4.20;;;;;23.50;100339.00;;;;93307;1209;76859;-47
2021/08/04 04:09:36;;;;;;;10.30;4.40;;;;;23.50;100341.40;;;;93344;1220;84262;-52
2021/08/04 04:11:38;;;;;;;9.00;4.10;;;;;23.50;100343.80;;;;93267;1221;102167;-41
2021/08/04 04:13:39;;;;;;;9.50;4.50;;;;;23.60;100343.60;;;;93288;1220;93021;-42
2021/08/04 04:15:41;;;;;;;11.90;4.20;;;;;23.60;100341.20;;;;93285;1220;85354;-48
2021/08/04 04:17:42;;;;;;;9.10;4.50;;;;;23.60;100340.00;;;;93270;1221;76442;-47
2021/08/04 04:19:44;;;;;;;8.70;3.90;;;;;23.60;100342.20;;;;93312;1220;84960;-47
2021/08/04 04:21:45;;;;;;;8.50;3.90;;;;;23.60;100342.60;;;;93313;1221;102326;-47
2021/08/04 04:23:47;;;;;;;8.20;4.10;;;;;23.50;100346.00;;;;93311;1220;94088;-46
2021/08/04 04:25:48;;;;;;;8.50;4.10;;;;;23.50;100349.20;;;;93287;1220;85370;-40
2021/08/04 04:27:50;;;;;;;9.40;4.60;;;;;23.50;100349.40;;;;93311;1212;77192;-41
2021/08/04 04:29:51;;;;;;;8.00;4.30;;;;;23.58;100346.40;;;;93321;1219;84084;-41
2021/08/04 04:31:53;;;;;;;9.70;3.80;;;;;23.60;100347.00;;;;93295;1221;102240;-48
2021/08/04 04:33:54;;;;;;;7.10;3.90;;;;;23.60;100347.40;;;;93297;1221;93138;-48
2021/08/04 04:35:58;;;;;;;7.60;3.80;;;;;23.60;100349.20;;;;93312;1218;84105;-46
2021/08/04 04:37:59;;;;;;;9.60;3.80;;;;;23.60;100347.20;;;;93296;1204;76379;-47
2021/08/04 04:40:01;;;;;;;10.70;3.70;;;;;23.60;100347.60;;;;93309;1218;83912;-41
2021/08/04 04:42:03;;;;;;;9.40;4.10;;;;;23.60;100347.00;;;;93284;1221;101241;-41
2021/08/04 04:44:05;;;;;;;10.30;4.00;;;;;23.60;100348.00;;;;93307;1221;93436;-41
2021/08/04 04:46:08;;;;;;;10.10;3.90;;;;;23.70;100351.80;;;;93266;1219;84309;-41
2021/08/04 04:48:09;;;;;;;9.00;3.70;;;;;23.64;100346.80;;;;93302;1220;77615;-41
2021/08/04 04:50:11;;;;;;;9.40;4.40;;;;;23.60;100347.40;;;;93330;1212;83876;-47
2021/08/04 04:52:12;;;;;;;12.60;4.00;;;;;23.60;100354.40;;;;93283;1221;101545;-47
2021/08/04 04:54:14;;;;;;;8.00;3.60;;;;;23.60;100350.00;;;;93290;1221;93155;-47
2021/08/04 04:56:15;;;;;;;8.20;4.10;;;;;23.62;100351.00;;;;93309;1219;84174;-41
2021/08/04 04:58:17;;;;;;;8.00;4.10;;;;;23.70;100349.20;;;;93306;1220;77565;-40
2021/08/04 05:00:18;;;;;;;9.10;4.10;;;;;23.78;100353.80;;;;93333;1220;85384;-47
2021/08/04 05:02:20;;;;;;;8.90;4.20;;;;;23.70;100353.00;;;;93276;1220;101802;-47
2021/08/04 05:04:22;;;;;;;8.70;3.80;;;;;23.70;100358.40;;;;93300;1221;93102;-47
2021/08/04 05:06:23;;;;;;;8.00;3.90;;;;;23.70;100356.60;;;;93295;1220;85335;-47
2021/08/04 05:08:25;;;;;;;8.50;3.90;;;;;23.70;100355.40;;;;93274;1220;77594;-50
2021/08/04 05:10:26;;;;;;;8.30;4.10;;;;;23.70;100350.60;;;;93307;1212;83868;-49
2021/08/04 05:12:28;;;;;;;10.40;4.10;;;;;23.70;100351.60;;;;93332;1221;102191;-50
2021/08/04 05:14:30;;;;;;;9.00;3.80;;;;;23.70;100346.20;;;;93308;1220;94142;-48
2021/08/04 05:16:31;;;;;;;7.60;4.00;;;;;23.60;100349.60;;;;93265;1220;85202;-42
2021/08/04 05:18:33;;;;;;;9.40;4.20;;;;;23.56;100350.60;;;;93312;1220;77711;-40
2021/08/04 05:20:34;;;;;;;8.30;4.30;;;;;23.50;100350.40;;;;93281;1215;84145;-40
2021/08/04 05:22:36;;;;;;;9.90;4.50;;;;;23.60;100355.20;;;;93309;1220;102568;-42
2021/08/04 05:24:38;;;;;;;8.20;4.00;;;;;23.60;100354.40;;;;93300;1220;94145;-42
2021/08/04 05:26:39;;;;;;;8.70;4.10;;;;;23.60;100354.00;;;;93273;1212;84178;-50
2021/08/04 05:28:41;;;;;;;9.40;5.30;;;;;23.60;100352.40;;;;93304;1209;77023;-48
2021/08/04 05:30:42;;;;;;;12.30;5.20;;;;;23.60;100354.40;;;;93328;1220;85438;-42
2021/08/04 05:32:44;;;;;;;10.60;4.60;;;;;23.50;100358.40;;;;93289;1220;102208;-42
2021/08/04 05:34:45;;;;;;;10.00;4.30;;;;;23.50;100359.00;;;;93300;1213;93126;-45
2021/08/04 05:36:47;;;;;;;10.70;4.90;;;;;23.60;100360.00;;;;93260;1219;84080;-43
2021/08/04 05:38:49;;;;;;;10.40;4.60;;;;;23.60;100357.00;;;;93293;1220;77532;-43
2021/08/04 05:40:50;;;;;;;8.30;4.10;;;;;23.66;100359.00;;;;93301;1205;83886;-42
2021/08/04 05:42:52;;;;;;;8.40;4.10;;;;;23.78;100360.00;;;;93295;1221;102435;-42
2021/08/04 05:44:53;;;;;;;12.80;5.10;;;;;23.84;100365.20;;;;93315;1221;94656;-41
2021/08/04 05:46:55;;;;;;;10.80;5.30;;;;;23.80;100363.60;;;;93281;1212;83937;-40
2021/08/04 05:48:56;;;;;;;9.60;4.40;;;;;23.70;100363.40;;;;93256;1219;76508;-42
2021/08/04 05:50:58;;;;;;;8.90;4.50;;;;;23.70;100369.40;;;;93319;1221;85120;-50
2021/08/04 05:52:59;;;;;;;10.80;4.60;;;;;23.80;100369.80;;;;93312;1221;101863;-49
2021/08/04 05:55:01;;;;;;;9.00;4.30;;;;;23.80;100367.40;;;;93321;1221;94280;-47
2021/08/04 05:57:03;;;;;;;10.00;4.50;;;;;23.70;100374.20;;;;93271;1221;85701;-48
2021/08/04 05:59:04;;;;;;;9.70;5.00;;;;;23.60;100383.20;;;;93347;1212;77310;-47
2021/08/04 06:01:06;;;;;;;12.40;4.70;;;;;23.40;100393.00;;;;93283;1221;84926;-48
2021/08/04 06:03:08;;;;;;;11.70;5.20;;;;;23.30;100402.60;;;;93305;1221;102146;-50
2021/08/04 06:05:10;;;;;;;10.70;4.60;;;;;23.20;100408.80;;;;93295;1213;93114;-48
2021/08/04 06:07:12;;;;;;;8.70;4.20;;;;;23.16;100413.80;;;;93328;1212;84841;-49
2021/08/04 06:09:14;;;;;;;10.80;4.80;;;;;23.26;100413.80;;;;93272;1221;77536;-48
2021/08/04 06:11:15;;;;;;;9.90;4.80;;;;;23.10;100411.40;;;;93292;1221;84840;-48
2021/08/04 06:13:17;;;;;;;11.00;4.70;;;;;22.90;100412.80;;;;93295;1221;102277;-50
2021/08/04 06:15:18;;;;;;;13.00;4.40;;;;;23.00;100415.20;;;;93322;1220;94158;-41
2021/08/04 06:17:20;;;;;;;9.10;4.60;;;;;23.00;100418.20;;;;93265;1211;83918;-41
2021/08/04 06:19:21;;;;;;;9.60;4.70;;;;;23.00;100417.40;;;;93320;1218;76913;-41
2021/08/04 06:21:26;;;;;;;9.00;3.70;;;;;23.08;100418.00;;;;93346;1221;84144;-52
2021/08/04 06:23:27;;;;;;;9.00;4.00;;;;;23.28;100414.60;;;;93326;1221;101801;-46
2021/08/04 06:25:29;;;;;;;8.10;3.90;;;;;23.30;100414.40;;;;93278;1220;94288;-42
2021/08/04 06:27:30;;;;;;;8.50;3.90;;;;;23.30;100420.60;;;;93311;1220;83851;-43
2021/08/04 06:29:32;;;;;;;9.60;4.00;;;;;23.30;100425.80;;;;93311;1213;76580;-43
2021/08/04 06:31:33;;;;;;;8.70;4.40;;;;;23.30;100422.00;;;;93319;1220;85689;-41
2021/08/04 06:33:35;;;;;;;8.40;4.00;;;;;23.30;100418.60;;;;93343;1221;102151;-40
2021/08/04 06:35:36;;;;;;;7.00;3.70;;;;;23.20;100420.20;;;;93326;1221;94142;-47
2021/08/04 06:37:38;;;;;;;7.00;3.30;;;;;23.30;100416.80;;;;93302;1218;84204;-47
2021/08/04 06:39:39;;;;;;;7.20;3.30;;;;;23.50;100409.20;;;;93301;1212;76615;-47
2021/08/04 06:41:41;;;;;;;7.20;3.60;;;;;23.60;100411.00;;;;93299;1221;85023;-47
2021/08/04 06:43:42;;;;;;;8.90;4.10;;;;;23.60;100407.20;;;;93265;1221;101099;-49
2021/08/04 06:45:44;;;;;;;8.00;4.20;;;;;23.50;100412.60;;;;93270;1221;94107;-48
2021/08/04 06:47:45;;;;;;;7.70;3.70;;;;;23.30;100410.80;;;;93257;1221;85311;-48
2021/08/04 06:49:47;;;;;;;6.90;3.10;;;;;23.40;100407.80;;;;93286;1212;76512;-48
2021/08/04 06:51:48;;;;;;;8.60;3.50;;;;;23.60;100409.80;;;;93262;1206;83901;-41
2021/08/04 06:53:50;;;;;;;9.30;4.00;;;;;23.50;100408.40;;;;93267;1221;102490;-41
2021/08/04 06:55:52;;;;;;;7.60;4.00;;;;;23.30;100412.40;;;;93270;1220;93339;-41
2021/08/04 06:57:53;;;;;;;8.00;3.50;;;;;23.04;100427.00;;;;93293;1221;85110;-41
2021/08/04 06:59:55;;;;;;;10.80;4.70;;;;;23.20;100426.60;;;;93278;1220;77501;-40
2021/08/04 07:02:01;;;;;;;6.70;3.60;;;;;23.16;100427.00;;;;93324;1218;83943;-42
2021/08/04 07:04:02;;;;;;;8.00;3.40;;;;;23.10;100423.20;;;;93299;1221;102200;-41
2021/08/04 07:06:08;;;;;;;8.40;3.70;;;;;23.40;100422.20;;;;93290;1220;93148;-41
2021/08/04 07:08:17;;;;;;;6.80;3.40;;;;;23.44;100422.60;;;;93250;1221;85112;-42
2021/08/04 07:10:19;;;;;;;7.20;3.40;;;;;23.50;100428.40;;;;93273;1221;77578;-48
2021/08/04 07:12:20;;;;;;;9.20;4.00;;;;;23.48;100427.60;;;;93272;1221;85521;-48
2021/08/04 07:14:21;;;;;;;7.60;3.20;;;;;23.40;100428.40;;;;93316;1221;100714;-48
2021/08/04 07:16:23;;;;;;;7.70;3.80;;;;;23.52;100431.40;;;;93252;1221;94089;-42
2021/08/04 07:18:25;;;;;;;8.60;4.00;;;;;23.60;100423.60;;;;93323;1221;84701;-40
2021/08/04 07:20:26;;;;;;;8.60;3.60;;;;;23.70;100424.60;;;;93317;1215;76764;-48
2021/08/04 07:22:28;;;;;;;9.40;4.20;;;;;23.70;100419.60;;;;93334;1221;84914;-47
2021/08/04 07:24:29;;;;;;;8.20;3.90;;;;;23.70;100420.20;;;;93330;1212;102733;-50
2021/08/04 07:26:31;;;;;;;8.50;4.30;;;;;23.70;100424.60;;;;93285;1221;93907;-42
2021/08/04 07:28:33;;;;;;;8.70;4.20;;;;;23.70;100422.80;;;;93266;1221;85196;-42
2021/08/04 07:30:34;;;;;;;10.30;4.30;;;;;23.70;100423.20;;;;93303;1218;76725;-48
2021/08/04 07:32:36;;;;;;;11.00;3.70;;;;;23.70;100417.80;;;;93263;1218;84244;-47
2021/08/04 07:34:38;;;;;;;10.20;4.00;;;;;23.70;100424.40;;;;93247;1221;101762;-53
2021/08/04 07:36:40;;;;;;;17.40;6.00;;;;;23.90;100422.80;;;;93248;1220;94192;-62
2021/08/04 07:38:41;;;;;;;15.10;5.40;;;;;24.02;100422.40;;;;93275;1219;84144;-63
2021/08/04 07:40:43;;;;;;;11.80;4.50;;;;;24.20;100416.00;;;;93265;1220;78181;-48
2021/08/04 07:42:48;;;;;;;10.90;4.70;;;;;24.20;100417.60;;;;93215;1207;83777;-51
2021/08/04 07:44:49;;;;;;;13.20;4.50;;;;;24.22;100416.80;;;;93309;1221;101653;-50
2021/08/04 07:46:51;;;;;;;8.90;4.50;;;;;24.30;100425.40;;;;93279;1221;94296;-49
2021/08/04 07:48:53;;;;;;;10.90;4.30;;;;;24.40;100421.80;;;;93289;1221;85089;-56
2021/08/04 07:50:55;;;;;;;13.30;4.90;;;;;24.30;100419.60;;;;93277;1213;76495;-55
2021/08/04 07:52:57;;;;;;;12.30;4.50;;;;;24.20;100420.80;;;;93342;1221;84881;-68
2021/08/04 07:54:58;;;;;;;10.30;4.50;;;;;24.30;100420.60;;;;93223;1221;100838;-48
2021/08/04 07:57:01;;;;;;;9.30;4.50;;;;;24.30;100420.00;;;;93274;1219;94032;-47
2021/08/04 07:59:04;;;;;;;12.60;5.10;;;;;24.30;100416.60;;;;93286;1220;85619;-48
2021/08/04 08:01:05;;;;;;;10.70;4.30;;;;;24.28;100424.20;;;;93278;1220;77597;-50
2021/08/04 08:03:07;;;;;;;8.70;4.20;;;;;24.20;100428.40;;;;93288;1211;84234;-44
2021/08/04 08:05:09;;;;;;;9.90;4.30;;;;;24.30;100428.40;;;;93287;1221;102078;-50
2021/08/04 08:07:11;;;;;;;15.40;4.70;;;;;24.40;100427.80;;;;93327;1213;93683;-48
2021/08/04 08:09:13;;;;;;;13.50;4.60;;;;;24.40;100425.60;;;;93253;1221;85103;-51
2021/08/04 08:11:15;;;;;;;11.70;4.70;;;;;24.50;100430.40;;;;93319;1220;77526;-51
2021/08/04 08:13:16;;;;;;;10.70;4.40;;;;;24.98;100432.60;;;;93301;1221;84951;-50
2021/08/04 08:15:18;;;;;;;24.80;4.50;;;;;25.16;100442.80;;;;93284;1221;101225;-55
2021/08/04 08:17:20;;;;;;;11.30;4.10;;;;;25.28;100443.60;;;;93241;1221;93333;-50
2021/08/04 08:19:21;;;;;;;10.60;4.20;;;;;25.34;100442.60;;;;93269;1218;84307;-48
2021/08/04 08:21:23;;;;;;;10.00;3.90;;;;;24.80;100446.60;;;;93244;1221;76516;-50
2021/08/04 08:23:25;;;;;;;9.40;3.90;;;;;24.52;100448.00;;;;93271;1220;84841;-58
2021/08/04 08:25:26;;;;;;;10.60;4.30;;;;;24.90;100447.60;;;;93311;1219;101233;-52
2021/08/04 08:27:28;;;;;;;9.60;4.00;;;;;24.70;100449.80;;;;93290;1221;93274;-52
2021/08/04 08:29:29;;;;;;;12.00;4.30;;;;;24.88;100445.80;;;;93229;1221;85163;-63
2021/08/04 08:31:32;;;;;;;11.80;4.20;;;;;24.80;100445.60;;;;93264;1211;76373;-52
2021/08/04 08:33:33;;;;;;;10.30;4.30;;;;;24.80;100445.20;;;;93275;1215;83766;-46
2021/08/04 08:35:35;;;;;;;12.80;4.60;;;;;24.70;100445.80;;;;93284;1219;102339;-42
2021/08/04 08:37:37;;;;;;;8.50;4.00;;;;;24.40;100444.40;;;;93279;1220;93791;-42
2021/08/04 08:39:38;;;;;;;9.40;4.20;;;;;24.30;100442.40;;;;93272;1213;84577;-42
2021/08/04 08:41:40;;;;;;;10.60;4.30;;;;;24.20;100440.40;;;;93278;1222;77743;-46
2021/08/04 08:43:41;;;;;;;10.50;4.60;;;;;24.20;100439.60;;;;93270;1221;84915;-47
2021/08/04 08:45:43;;;;;;;13.30;5.00;;;;;24.20;100445.40;;;;93265;1220;101550;-42
2021/08/04 08:47:45;;;;;;;12.80;4.10;;;;;24.20;100445.40;;;;93311;1220;94160;-42
2021/08/04 08:49:47;;;;;;;10.50;4.30;;;;;24.10;100446.00;;;;93269;1220;84900;-42
2021/08/04 08:51:48;;;;;;;12.50;4.40;;;;;24.10;100447.00;;;;93242;1216;76538;-45
2021/08/04 08:53:50;;;;;;;12.60;4.70;;;;;24.02;100453.40;;;;93282;1221;84947;-45
2021/08/04 08:55:51;;;;;;;10.80;4.40;;;;;23.74;100464.00;;;;93245;1220;101777;-41
2021/08/04 08:57:53;;;;;;;10.70;4.30;;;;;23.60;100464.00;;;;93248;1221;94184;-43
2021/08/04 08:59:57;;;;;;;9.60;3.90;;;;;23.60;100461.20;;;;93287;1221;83910;-43
2021/08/04 09:02:01;;;;;;;10.50;4.30;;;;;23.60;100458.20;;;;93259;1221;77547;-46
2021/08/04 09:04:04;;;;;;;13.90;4.70;;;;;23.80;100456.20;;;;93293;1221;85030;-47
2021/08/04 09:06:08;;;;;;;10.20;3.60;;;;;23.80;100459.00;;;;93302;1212;100604;-47
2021/08/04 09:08:23;;;;;;;12.10;3.90;;;;;23.90;100459.80;;;;93281;1220;93164;-47
2021/08/04 09:10:30;;;;;;;12.70;3.80;;;;;23.90;100463.00;;;;93265;1212;83955;-47
2021/08/04 09:12:32;;;;;;;11.30;3.90;;;;;23.90;100465.80;;;;93264;1206;76589;-46
2021/08/04 09:14:34;;;;;;;11.90;3.80;;;;;23.90;100463.20;;;;93198;1222;83995;-45
2021/08/04 09:16:39;;;;;;;11.60;4.20;;;;;23.90;100462.00;;;;93313;1221;100989;-46
2021/08/04 09:18:47;;;;;;;10.10;3.70;;;;;23.88;100458.00;;;;93283;1213;93409;-46
2021/08/04 09:20:56;;;;;;;12.60;3.70;;;;;23.88;100461.80;;;;93317;1222;85281;-43
2021/08/04 09:23:01;;;;;;;10.10;3.30;;;;;23.86;100463.80;;;;93318;1206;76352;-43
2021/08/04 09:25:14;;;;;;;9.00;3.10;;;;;23.80;100458.60;;;;93332;1212;84380;-44
2021/08/04 09:27:16;;;;;;;11.00;3.70;;;;;23.80;100458.40;;;;93280;1221;102211;-49
2021/08/04 09:29:17;;;;;;;8.40;3.10;;;;;23.98;100461.00;;;;93303;1220;93654;-49
2021/08/04 09:31:20;;;;;;;10.10;3.20;;;;;24.10;100455.60;;;;93260;1220;85243;-48
2021/08/04 09:33:28;;;;;;;9.80;3.40;;;;;24.30;100457.80;;;;93268;1221;77544;-47
2021/08/04 09:35:46;;;;;;;9.80;3.30;;;;;24.40;100452.20;;;;93296;1221;85428;-40
2021/08/04 09:39:27;;;;;;;8.30;3.20;;;;;24.50;100447.20;;;;94974;1195;585360;-39
2021/08/04 09:41:29;;;;;;;10.20;3.10;;;;;24.50;100443.20;;;;96458;1183;61628;-42
2021/08/04 09:43:30;;;;;;;9.20;3.10;;;;;24.60;100443.20;;;;96302;1183;84886;-40
2021/08/04 09:45:40;;;;;;;8.90;3.40;;;;;24.60;100439.80;;;;96434;1174;99279;-48
2021/08/04 09:47:59;;;;;;;10.20;3.30;;;;;24.66;100444.60;;;;96398;1182;94071;-49
2021/08/04 09:50:03;;;;;;;9.70;3.80;;;;;24.66;100444.20;;;;96354;1183;85282;-39
2021/08/04 09:52:06;;;;;;;10.60;3.00;;;;;24.66;100440.60;;;;96366;1175;76684;-41
2021/08/04 09:54:12;;;;;;;10.00;3.10;;;;;24.70;100441.20;;;;96351;1183;84857;-44
2021/08/04 09:56:20;;;;;;;7.10;2.70;;;;;24.70;100438.60;;;;96282;1183;100183;-41
2021/08/04 09:58:23;;;;;;;6.90;2.80;;;;;24.80;100438.20;;;;96384;1183;94120;-40
2021/08/04 10:00:28;;;;;;;11.90;2.90;;;;;24.70;100441.40;;;;96158;1183;85262;-48
2021/08/04 10:02:29;;;;;;;6.50;2.40;;;;;24.70;100438.80;;;;96391;1174;76478;-42
2021/08/04 10:04:31;;;;;;;7.60;2.70;;;;;24.70;100438.40;;;;96337;1183;85085;-39